Time;durP1;ratioP1;P1;durP2;ratioP2;P2;SDS_P1;SDS_P2;PMS_P1;PMS_P2;Temp;Humidity;BMP_temperature;BMP_pressure;BME280_temperature;BME280_humidity;BME280_pressure;Samples;Min_cycle;Max_cycle;Signal;HPM_P1;HPM_P2
2023/04/23 00:00:25;;;;;;;19.48;14.82;;;14.50;99.90;;;;;;2092273;28;20074;-81
2023/04/23 00:01:27;;;;;;;18.15;14.73;;;14.40;99.90;;;;;;2090988;28;20456;-81
2023/04/23 00:02:32;;;;;;;18.65;15.15;;;14.40;99.90;;;;;;2090557;28;20191;-81
2023/04/23 00:03:34;;;;;;;16.52;14.27;;;14.50;99.90;;;;;;2085984;28;21040;-81
2023/04/23 00:04:37;;;;;;;17.65;13.70;;;14.40;99.90;;;;;;2090555;28;20020;-81
2023/04/23 00:05:38;;;;;;;16.75;12.70;;;14.50;99.90;;;;;;2090835;28;20746;-81
2023/04/23 00:06:40;;;;;;;14.18;12.18;;;14.40;99.90;;;;;;2084144;28;20056;-82
2023/04/23 00:07:41;;;;;;;14.35;12.00;;;14.40;99.90;;;;;;2084622;28;20116;-81
2023/04/23 00:08:42;;;;;;;13.95;11.63;;;14.40;99.90;;;;;;2091146;28;20029;-81
2023/04/23 00:09:44;;;;;;;14.57;11.20;;;14.40;99.90;;;;;;2086332;28;20614;-82
2023/04/23 00:10:45;;;;;;;13.45;11.35;;;14.40;99.90;;;;;;2090573;28;20097;-82
2023/04/23 00:11:46;;;;;;;15.23;11.65;;;14.40;99.90;;;;;;2083680;28;21188;-82
2023/04/23 00:12:46;;;;;;;14.30;11.60;;;14.30;99.90;;;;;;2073452;28;20107;-82
2023/04/23 00:13:48;;;;;;;15.30;11.82;;;14.30;99.90;;;;;;2073667;28;20029;-82
2023/04/23 00:14:49;;;;;;;14.55;11.95;;;14.30;99.90;;;;;;2086617;28;20029;-81
2023/04/23 00:15:50;;;;;;;15.18;11.15;;;14.30;99.90;;;;;;2073615;28;20028;-81
2023/04/23 00:16:51;;;;;;;14.15;11.52;;;14.30;99.90;;;;;;2088266;28;20036;-83
2023/04/23 00:17:52;;;;;;;14.00;11.13;;;14.30;99.90;;;;;;2086230;28;20344;-82
2023/04/23 00:18:52;;;;;;;12.35;10.90;;;14.30;99.90;;;;;;2081624;28;20054;-81
2023/04/23 00:19:53;;;;;;;12.43;10.48;;;14.30;99.90;;;;;;2090381;28;20070;-80
2023/04/23 00:20:54;;;;;;;12.57;10.55;;;14.30;99.90;;;;;;2082649;28;20423;-80
2023/04/23 00:21:54;;;;;;;12.80;10.75;;;14.30;99.90;;;;;;2079373;28;20041;-80
2023/04/23 00:22:55;;;;;;;14.35;10.43;;;14.30;99.90;;;;;;2095291;28;20063;-81
2023/04/23 00:23:56;;;;;;;11.73;10.25;;;14.20;99.90;;;;;;2081500;28;20029;-81
2023/04/23 00:24:56;;;;;;;21.08;12.48;;;14.30;99.90;;;;;;2081578;28;20025;-81
2023/04/23 00:25:57;;;;;;;14.77;12.00;;;14.20;99.90;;;;;;2096861;28;20485;-82
2023/04/23 00:26:57;;;;;;;17.23;12.05;;;14.30;99.90;;;;;;2082466;28;20931;-81
2023/04/23 00:27:58;;;;;;;15.10;11.38;;;14.20;99.90;;;;;;2073500;28;20029;-81
2023/04/23 00:28:59;;;;;;;14.68;10.57;;;14.20;99.90;;;;;;2081518;28;20020;-81
2023/04/23 00:29:59;;;;;;;11.80;10.30;;;14.20;99.90;;;;;;2079225;28;20029;-81
2023/04/23 00:31:03;;;;;;;13.52;10.30;;;14.20;99.90;;;;;;2071655;28;20060;-80
2023/04/23 00:32:04;;;;;;;14.95;10.55;;;14.20;99.90;;;;;;2081320;28;20028;-81
2023/04/23 00:33:05;;;;;;;14.02;10.93;;;14.10;99.90;;;;;;2090473;28;20024;-82
2023/04/23 00:34:05;;;;;;;15.90;10.82;;;14.10;99.90;;;;;;2081514;28;20048;-80
2023/04/23 00:35:07;;;;;;;13.40;10.38;;;14.10;99.90;;;;;;2092019;28;20090;-81
2023/04/23 00:36:07;;;;;;;13.13;10.38;;;14.10;99.90;;;;;;2082292;28;20039;-82
2023/04/23 00:37:08;;;;;;;14.85;10.60;;;14.10;99.90;;;;;;2073089;28;20394;-82
2023/04/23 00:38:09;;;;;;;15.63;10.68;;;14.10;99.90;;;;;;2077992;28;20492;-82
2023/04/23 00:39:10;;;;;;;14.88;10.20;;;14.10;99.90;;;;;;2082916;28;20028;-82
2023/04/23 00:40:11;;;;;;;15.98;10.55;;;14.10;99.90;;;;;;2075460;28;20049;-80
2023/04/23 00:41:13;;;;;;;12.63;9.65;;;14.10;99.90;;;;;;2081393;28;20029;-81
2023/04/23 00:42:16;;;;;;;11.52;9.85;;;14.10;99.90;;;;;;2085366;28;20116;-80
2023/04/23 00:43:18;;;;;;;12.50;9.23;;;14.10;99.90;;;;;;2090630;28;20110;-80
2023/04/23 00:44:18;;;;;;;10.65;9.20;;;14.00;99.90;;;;;;2091756;28;20103;-80
2023/04/23 00:45:19;;;;;;;13.60;9.48;;;14.00;99.90;;;;;;2087623;28;20056;-81
2023/04/23 00:46:21;;;;;;;11.43;9.13;;;14.00;99.90;;;;;;2081274;28;20069;-81
2023/04/23 00:47:22;;;;;;;11.77;9.57;;;14.00;99.90;;;;;;2081568;28;20017;-82
2023/04/23 00:48:23;;;;;;;12.52;9.70;;;14.00;99.90;;;;;;2090334;28;20505;-81
2023/04/23 00:49:24;;;;;;;15.23;10.48;;;13.90;99.90;;;;;;2096356;28;20073;-81
2023/04/23 00:50:25;;;;;;;13.07;9.63;;;14.00;99.90;;;;;;2079167;28;20108;-82
2023/04/23 00:51:27;;;;;;;15.98;10.13;;;13.90;99.90;;;;;;2073218;28;20105;-81
2023/04/23 00:52:28;;;;;;;12.18;9.90;;;14.00;99.90;;;;;;2075781;28;20108;-81
2023/04/23 00:53:29;;;;;;;13.52;9.43;;;14.00;99.90;;;;;;2088886;28;20495;-82
2023/04/23 00:54:30;;;;;;;13.88;10.02;;;13.90;99.90;;;;;;2101543;28;20032;-81
2023/04/23 00:55:32;;;;;;;12.52;9.25;;;13.90;99.90;;;;;;2091778;28;20043;-82
2023/04/23 00:56:33;;;;;;;11.70;8.93;;;14.00;99.90;;;;;;2081441;28;20029;-81
2023/04/23 00:57:35;;;;;;;11.13;8.80;;;13.90;99.90;;;;;;2081376;28;20029;-81
2023/04/23 00:58:37;;;;;;;11.27;8.57;;;13.90;99.90;;;;;;2081407;28;20045;-81
2023/04/23 00:59:37;;;;;;;11.23;8.20;;;13.90;99.90;;;;;;2083468;28;20031;-82
2023/04/23 01:00:45;;;;;;;11.13;9.00;;;13.90;99.90;;;;;;2086524;28;20124;-84
2023/04/23 01:01:46;;;;;;;14.27;10.43;;;13.90;99.90;;;;;;2074756;28;20097;-82
2023/04/23 01:02:49;;;;;;;15.20;11.20;;;13.90;99.90;;;;;;2074999;28;20487;-81
2023/04/23 01:03:52;;;;;;;15.57;10.10;;;13.80;99.90;;;;;;2084048;28;20108;-82
2023/04/23 01:04:54;;;;;;;12.50;10.15;;;13.80;99.90;;;;;;2089460;28;20028;-81
2023/04/23 01:05:55;;;;;;;12.50;9.60;;;13.80;99.90;;;;;;2082821;28;20180;-81
2023/04/23 01:06:57;;;;;;;10.82;9.15;;;13.80;99.90;;;;;;2079866;28;20441;-81
2023/04/23 01:07:57;;;;;;;13.02;9.00;;;13.80;99.90;;;;;;2074386;28;20436;-81
2023/04/23 01:08:58;;;;;;;10.27;8.70;;;13.80;99.90;;;;;;2084066;28;20049;-71
2023/04/23 01:09:59;;;;;;;10.27;8.80;;;13.80;99.90;;;;;;2089191;28;20116;-82
2023/04/23 01:11:02;;;;;;;11.75;8.82;;;13.80;99.90;;;;;;2091619;28;20023;-82
2023/04/23 01:12:04;;;;;;;10.73;8.70;;;13.80;99.90;;;;;;2082935;28;20051;-82
2023/04/23 01:13:05;;;;;;;11.38;9.20;;;13.70;99.90;;;;;;2083222;28;20061;-81
2023/04/23 01:14:08;;;;;;;12.88;8.45;;;13.70;99.90;;;;;;2089491;28;20420;-81
2023/04/23 01:15:09;;;;;;;11.57;9.00;;;13.70;99.90;;;;;;2083264;28;20021;-81
2023/04/23 01:16:10;;;;;;;10.30;8.45;;;13.70;99.90;;;;;;2091566;28;20387;-81
2023/04/23 01:17:11;;;;;;;10.05;8.30;;;13.70;99.90;;;;;;2091920;28;20028;-69
2023/04/23 01:18:13;;;;;;;9.57;8.32;;;13.60;99.90;;;;;;2084901;28;20029;-70
2023/04/23 01:19:14;;;;;;;10.38;8.43;;;13.60;99.90;;;;;;2083216;28;20032;-69
2023/04/23 01:20:15;;;;;;;9.85;8.45;;;13.60;99.90;;;;;;2091599;28;20032;-69
2023/04/23 01:21:17;;;;;;;9.85;8.05;;;13.50;99.90;;;;;;2082396;28;20488;-70
2023/04/23 01:22:19;;;;;;;9.65;8.13;;;13.50;99.90;;;;;;2076497;28;20040;-70
2023/04/23 01:23:21;;;;;;;9.77;8.02;;;13.50;99.90;;;;;;2089558;28;20550;-70
2023/04/23 01:24:22;;;;;;;9.57;8.20;;;13.50;99.90;;;;;;2082166;28;20029;-68
2023/04/23 01:25:22;;;;;;;11.38;8.00;;;13.50;99.90;;;;;;2082797;28;20036;-69
2023/04/23 01:26:23;;;;;;;9.50;8.23;;;13.50;99.90;;;;;;2076298;28;20021;-69
2023/04/23 01:27:24;;;;;;;10.27;8.30;;;13.40;99.90;;;;;;2074393;28;20033;-69
2023/04/23 01:28:25;;;;;;;10.93;8.23;;;13.40;99.90;;;;;;2080773;28;20497;-69
2023/04/23 01:29:26;;;;;;;11.27;8.57;;;13.40;99.90;;;;;;2084627;28;20191;-69
2023/04/23 01:30:27;;;;;;;10.40;8.30;;;13.40;99.90;;;;;;2080381;28;20076;-71
2023/04/23 01:31:29;;;;;;;9.35;8.38;;;13.40;99.90;;;;;;2082127;28;20044;-70
2023/04/23 01:32:30;;;;;;;11.65;8.73;;;13.40;99.90;;;;;;2082750;28;20040;-69
2023/04/23 01:33:32;;;;;;;10.55;8.82;;;13.30;99.90;;;;;;2082632;28;20535;-69
2023/04/23 01:34:34;;;;;;;10.50;8.82;;;13.30;99.90;;;;;;2074489;28;20038;-69
2023/04/23 01:35:35;;;;;;;10.40;9.30;;;13.30;99.90;;;;;;2066379;28;20696;-70
2023/04/23 01:36:36;;;;;;;13.02;9.40;;;13.30;99.90;;;;;;2071359;28;20037;-70
2023/04/23 01:37:38;;;;;;;10.82;9.20;;;13.30;99.90;;;;;;2083410;28;20028;-71
2023/04/23 01:38:39;;;;;;;12.70;9.65;;;13.30;99.90;;;;;;2083942;28;20033;-70
2023/04/23 01:39:40;;;;;;;11.80;10.25;;;13.30;99.90;;;;;;2082220;28;20415;-70
2023/04/23 01:40:41;;;;;;;13.20;10.35;;;13.30;99.90;;;;;;2084708;28;20037;-70
2023/04/23 01:41:42;;;;;;;13.63;10.30;;;13.30;99.90;;;;;;2093701;28;20438;-70
2023/04/23 01:42:43;;;;;;;13.80;9.82;;;13.20;99.90;;;;;;2086499;28;20133;-70
2023/04/23 01:43:44;;;;;;;12.57;10.05;;;13.20;99.90;;;;;;2087274;28;20025;-70
2023/04/23 01:44:45;;;;;;;11.85;9.80;;;13.20;99.90;;;;;;2091528;28;20017;-71
2023/04/23 01:45:45;;;;;;;13.45;10.40;;;13.20;99.90;;;;;;2084850;28;20098;-70
2023/04/23 01:46:46;;;;;;;14.57;10.73;;;13.20;99.90;;;;;;2084084;28;20150;-70
2023/04/23 01:47:48;;;;;;;14.55;10.52;;;13.20;99.90;;;;;;2093328;28;20526;-71
2023/04/23 01:48:49;;;;;;;13.00;10.05;;;13.20;99.90;;;;;;2082162;28;20044;-70
2023/04/23 01:49:49;;;;;;;11.63;9.55;;;13.10;99.90;;;;;;2076203;28;20057;-70
2023/04/23 01:50:51;;;;;;;12.77;9.85;;;13.10;99.90;;;;;;2082625;28;20040;-70
2023/04/23 01:51:51;;;;;;;13.52;9.93;;;13.10;99.90;;;;;;2091840;28;20044;-70
2023/04/23 01:52:52;;;;;;;12.13;9.70;;;13.10;99.90;;;;;;2082663;28;20570;-69
2023/04/23 01:53:53;;;;;;;11.27;8.90;;;13.10;99.90;;;;;;2086795;28;20028;-70
2023/04/23 01:54:54;;;;;;;10.75;9.18;;;13.10;99.90;;;;;;2091281;28;20043;-70
2023/04/23 01:55:55;;;;;;;12.32;9.07;;;13.10;99.90;;;;;;2089598;28;20041;-69
2023/04/23 01:56:57;;;;;;;11.07;8.68;;;13.10;99.90;;;;;;2086577;28;20506;-69
2023/04/23 01:57:58;;;;;;;10.57;8.82;;;13.00;99.90;;;;;;2082323;28;20520;-70
2023/04/23 01:58:59;;;;;;;12.23;9.40;;;13.00;99.90;;;;;;2082479;28;20029;-69
2023/04/23 02:00:17;;;;;;;11.68;9.38;;;13.00;99.90;;;;;;2092425;28;20033;-70
2023/04/23 02:01:18;;;;;;;13.88;10.27;;;13.00;99.90;;;;;;2088806;28;20028;-71
2023/04/23 02:02:19;;;;;;;12.38;10.23;;;13.00;99.90;;;;;;2091474;28;20028;-70
2023/04/23 02:03:20;;;;;;;11.70;10.50;;;13.00;99.90;;;;;;2082294;28;20033;-70
2023/04/23 02:04:21;;;;;;;13.82;11.13;;;12.90;99.90;;;;;;2074169;28;20025;-70
2023/04/23 02:05:22;;;;;;;13.18;10.75;;;12.90;99.90;;;;;;2082456;28;20032;-70
2023/04/23 02:06:23;;;;;;;12.70;10.85;;;12.90;99.90;;;;;;2084241;28;20123;-71
2023/04/23 02:07:23;;;;;;;14.10;11.30;;;12.90;99.90;;;;;;2082624;28;20279;-70
2023/04/23 02:08:25;;;;;;;15.55;12.10;;;12.90;99.90;;;;;;2090881;28;20484;-69
2023/04/23 02:09:25;;;;;;;15.88;12.55;;;12.90;99.90;;;;;;2086179;28;20046;-70
2023/04/23 02:10:29;;;;;;;14.55;12.15;;;12.90;99.90;;;;;;2086260;28;20493;-70
2023/04/23 02:11:30;;;;;;;15.45;13.00;;;12.90;99.90;;;;;;2075957;28;20184;-70
2023/04/23 02:12:30;;;;;;;15.50;12.38;;;12.90;99.90;;;;;;2081991;28;20029;-70
2023/04/23 02:13:31;;;;;;;19.90;13.55;;;12.80;99.90;;;;;;2089642;28;20035;-70
2023/04/23 02:14:32;;;;;;;17.25;13.50;;;12.80;99.90;;;;;;2091228;28;20078;-71
2023/04/23 02:15:33;;;;;;;18.45;13.98;;;12.80;99.90;;;;;;2089290;28;20098;-70
2023/04/23 02:16:34;;;;;;;18.63;14.23;;;12.80;99.90;;;;;;2091000;28;20032;-71
2023/04/23 02:17:35;;;;;;;17.83;15.23;;;12.80;99.90;;;;;;2081980;28;20053;-70
2023/04/23 02:18:36;;;;;;;19.20;14.73;;;12.80;99.90;;;;;;2081953;28;20035;-70
2023/04/23 02:19:36;;;;;;;20.15;15.15;;;12.80;99.90;;;;;;2082333;28;20092;-70
2023/04/23 02:20:39;;;;;;;18.23;14.80;;;12.80;99.90;;;;;;2080578;28;20033;-70
2023/04/23 02:21:40;;;;;;;17.83;14.20;;;12.80;99.90;;;;;;2082395;28;20216;-70
2023/04/23 02:22:42;;;;;;;17.15;13.85;;;12.90;99.90;;;;;;2090759;28;20036;-70
2023/04/23 02:23:43;;;;;;;17.48;14.48;;;12.90;99.90;;;;;;2082403;28;20029;-70
2023/04/23 02:24:46;;;;;;;21.33;15.00;;;12.90;99.90;;;;;;2088576;28;20056;-70
2023/04/23 02:25:46;;;;;;;18.75;14.52;;;12.90;99.90;;;;;;2091456;28;20021;-70
2023/04/23 02:26:47;;;;;;;17.50;14.57;;;12.90;99.90;;;;;;2082286;28;20305;-69
2023/04/23 02:27:49;;;;;;;16.73;13.80;;;12.90;99.90;;;;;;2088585;28;20029;-69
2023/04/23 02:28:50;;;;;;;18.42;14.38;;;12.90;99.90;;;;;;2094550;28;20446;-70
2023/04/23 02:29:51;;;;;;;16.92;14.60;;;12.90;99.90;;;;;;2092901;28;20282;-70
2023/04/23 02:30:51;;;;;;;18.85;14.07;;;12.90;99.90;;;;;;2096146;28;20074;-69
2023/04/23 02:31:52;;;;;;;21.10;14.05;;;12.90;99.90;;;;;;2091335;28;20093;-69
2023/04/23 02:32:52;;;;;;;18.00;13.80;;;12.90;99.90;;;;;;2084228;28;20459;-69
2023/04/23 02:33:54;;;;;;;15.65;13.38;;;12.90;99.90;;;;;;2087583;28;20013;-70
2023/04/23 02:34:55;;;;;;;16.52;13.48;;;13.00;99.90;;;;;;2091518;28;20515;-70
2023/04/23 02:35:55;;;;;;;16.45;13.65;;;13.00;99.90;;;;;;2091254;28;20329;-70
2023/04/23 02:36:56;;;;;;;17.05;14.05;;;13.00;99.90;;;;;;2091087;28;20090;-70
2023/04/23 02:37:57;;;;;;;19.10;15.05;;;13.00;99.90;;;;;;2081893;28;20021;-70
2023/04/23 02:38:57;;;;;;;18.23;14.32;;;13.00;99.90;;;;;;2083692;28;20029;-70
2023/04/23 02:39:58;;;;;;;18.88;14.18;;;13.00;99.90;;;;;;2082007;28;20086;-71
2023/04/23 02:40:58;;;;;;;17.13;14.55;;;13.00;99.90;;;;;;2073948;28;20075;-70
2023/04/23 02:41:59;;;;;;;20.48;13.88;;;13.00;99.90;;;;;;2081799;28;20207;-70
2023/04/23 02:43:00;;;;;;;17.88;14.30;;;13.00;99.90;;;;;;2090922;28;20093;-70
2023/04/23 02:44:00;;;;;;;18.35;14.25;;;13.00;99.90;;;;;;2093069;28;20025;-70
2023/04/23 02:45:01;;;;;;;16.67;14.00;;;13.00;99.90;;;;;;2081805;28;20373;-71
2023/04/23 02:46:07;;;;;;;16.20;13.73;;;13.00;99.90;;;;;;2082206;28;20032;-70
2023/04/23 02:47:07;;;;;;;17.02;14.00;;;13.00;99.90;;;;;;2090924;28;20107;-70
2023/04/23 02:48:08;;;;;;;20.98;14.50;;;13.00;99.90;;;;;;2082331;28;20033;-68
2023/04/23 02:49:09;;;;;;;17.60;14.50;;;13.00;99.90;;;;;;2075899;28;20527;-69
2023/04/23 02:50:09;;;;;;;18.88;14.25;;;13.00;99.90;;;;;;2079019;28;20078;-69
2023/04/23 02:51:12;;;;;;;17.00;14.45;;;13.00;99.90;;;;;;2080048;28;20112;-70
2023/04/23 02:52:12;;;;;;;18.63;14.50;;;13.00;99.90;;;;;;2069721;28;20108;-70
2023/04/23 02:53:13;;;;;;;17.50;14.10;;;13.00;99.90;;;;;;2072699;28;20349;-70
2023/04/23 02:54:14;;;;;;;17.65;13.82;;;13.00;99.90;;;;;;2081950;28;20547;-70
2023/04/23 02:55:15;;;;;;;16.48;13.77;;;12.90;99.90;;;;;;2081821;28;20041;-70
2023/04/23 02:56:16;;;;;;;17.65;13.40;;;13.00;99.90;;;;;;2081986;28;20407;-70
2023/04/23 02:57:16;;;;;;;17.13;13.70;;;12.90;99.90;;;;;;2081921;28;20028;-68
2023/04/23 02:58:17;;;;;;;16.60;13.43;;;12.90;99.90;;;;;;2075511;28;20112;-69
2023/04/23 02:59:18;;;;;;;17.20;13.30;;;13.00;99.90;;;;;;2081698;28;20032;-69
2023/04/23 03:00:19;;;;;;;16.30;12.70;;;12.90;99.90;;;;;;2089878;28;20139;-69
2023/04/23 03:01:20;;;;;;;15.68;12.57;;;12.90;99.90;;;;;;2080273;28;20033;-70
2023/04/23 03:02:21;;;;;;;20.52;14.30;;;12.90;99.90;;;;;;2088363;28;20487;-70
2023/04/23 03:03:25;;;;;;;21.63;15.55;;;12.90;99.90;;;;;;2086730;28;20807;-70
2023/04/23 03:04:26;;;;;;;22.05;15.82;;;12.90;99.90;;;;;;2076786;28;20502;-70
2023/04/23 03:05:27;;;;;;;24.75;16.55;;;12.90;99.90;;;;;;2082687;28;20029;-70
2023/04/23 03:06:28;;;;;;;26.65;16.13;;;12.90;99.90;;;;;;2081956;28;20496;-70
2023/04/23 03:07:28;;;;;;;30.52;18.98;;;12.90;99.90;;;;;;2083523;28;20170;-71
2023/04/23 03:08:29;;;;;;;34.97;20.92;;;12.90;99.90;;;;;;2086945;28;20541;-69
2023/04/23 03:09:29;;;;;;;35.15;21.35;;;12.90;99.90;;;;;;2079205;28;20060;-69
2023/04/23 03:10:30;;;;;;;39.63;22.60;;;12.90;99.90;;;;;;2082921;28;20498;-69
2023/04/23 03:11:31;;;;;;;33.78;21.20;;;12.80;99.90;;;;;;2079888;28;20030;-70
2023/04/23 03:12:32;;;;;;;34.90;21.45;;;12.80;99.90;;;;;;2073283;28;20030;-69
2023/04/23 03:13:34;;;;;;;40.67;22.80;;;12.80;99.90;;;;;;2069271;28;20041;-70
2023/04/23 03:14:34;;;;;;;40.58;22.67;;;12.80;99.90;;;;;;2068853;28;20108;-69
2023/04/23 03:15:35;;;;;;;41.25;23.73;;;12.80;99.90;;;;;;2068907;28;20022;-69
2023/04/23 03:16:36;;;;;;;37.17;21.50;;;12.80;99.90;;;;;;2068311;28;20687;-69
2023/04/23 03:17:37;;;;;;;33.03;20.00;;;12.80;99.90;;;;;;2081944;28;20029;-68
2023/04/23 03:18:39;;;;;;;31.60;19.00;;;12.80;99.90;;;;;;2075286;28;20056;-70
2023/04/23 03:19:40;;;;;;;27.08;17.75;;;12.80;99.90;;;;;;2078456;28;20586;-69
2023/04/23 03:20:41;;;;;;;25.83;16.52;;;12.80;99.90;;;;;;2073478;28;20141;-70
2023/04/23 03:21:42;;;;;;;22.58;15.10;;;12.80;99.90;;;;;;2077008;28;20220;-70
2023/04/23 03:22:42;;;;;;;21.83;14.52;;;12.80;99.90;;;;;;2083656;28;20025;-70
2023/04/23 03:23:43;;;;;;;19.40;13.50;;;12.80;99.90;;;;;;2079477;28;20025;-70
2023/04/23 03:24:44;;;;;;;18.00;13.38;;;12.80;99.90;;;;;;2079241;28;20029;-70
2023/04/23 03:25:44;;;;;;;18.73;12.82;;;12.80;99.90;;;;;;2080836;28;20043;-70
2023/04/23 03:26:45;;;;;;;18.20;12.05;;;12.90;99.90;;;;;;2078386;28;20024;-70
2023/04/23 03:27:45;;;;;;;15.23;11.50;;;12.80;99.90;;;;;;2096404;28;20119;-70
2023/04/23 03:28:46;;;;;;;16.60;11.05;;;12.90;99.90;;;;;;2081600;28;20562;-70
2023/04/23 03:29:47;;;;;;;12.48;10.77;;;12.90;99.90;;;;;;2083411;28;20444;-70
2023/04/23 03:30:47;;;;;;;13.23;10.48;;;12.90;99.90;;;;;;2085270;28;20377;-69
2023/04/23 03:31:48;;;;;;;13.40;10.70;;;13.00;99.90;;;;;;2074922;28;20035;-69
2023/04/23 03:32:49;;;;;;;13.85;10.73;;;13.00;99.90;;;;;;2082824;28;20576;-69
2023/04/23 03:33:50;;;;;;;13.18;10.70;;;13.00;99.90;;;;;;2081860;28;20122;-70
2023/04/23 03:34:56;;;;;;;13.75;10.93;;;13.00;99.90;;;;;;2081437;28;20547;-68
2023/04/23 03:35:58;;;;;;;13.95;11.30;;;13.00;99.90;;;;;;2065192;28;20045;-70
2023/04/23 03:37:02;;;;;;;15.80;11.20;;;13.00;99.90;;;;;;2061501;28;20053;-70
2023/04/23 03:38:06;;;;;;;13.38;10.75;;;13.10;99.90;;;;;;2075884;28;20120;-70
2023/04/23 03:39:09;;;;;;;13.30;10.95;;;13.10;99.90;;;;;;2078426;28;20029;-70
2023/04/23 03:40:21;;;;;;;13.35;10.75;;;13.10;99.90;;;;;;2073807;28;20028;-70
2023/04/23 03:41:25;;;;;;;18.80;11.52;;;13.10;99.90;;;;;;2070431;28;20126;-70
2023/04/23 03:42:26;;;;;;;15.07;11.57;;;13.10;99.90;;;;;;2080506;28;20036;-70
2023/04/23 03:43:28;;;;;;;16.35;11.15;;;13.10;99.90;;;;;;2086882;28;20024;-70
2023/04/23 03:44:37;;;;;;;13.88;11.02;;;13.10;99.90;;;;;;2086147;28;20116;-69
2023/04/23 03:45:38;;;;;;;15.10;11.35;;;13.10;99.90;;;;;;2087621;28;20086;-70
2023/04/23 03:46:39;;;;;;;16.92;11.48;;;13.10;99.90;;;;;;2070939;28;20026;-70
2023/04/23 03:47:40;;;;;;;15.05;11.57;;;13.10;99.90;;;;;;2081445;28;20068;-70
2023/04/23 03:48:41;;;;;;;13.93;10.82;;;13.10;99.90;;;;;;2073189;28;20108;-70
2023/04/23 03:49:47;;;;;;;16.35;11.32;;;13.10;99.90;;;;;;2083356;28;20488;-70
2023/04/23 03:50:47;;;;;;;14.93;11.40;;;13.10;99.90;;;;;;2078280;28;20031;-70
2023/04/23 03:52:02;;;;;;;13.48;10.88;;;13.10;99.90;;;;;;2079084;28;20527;-70
2023/04/23 03:53:04;;;;;;;14.40;11.25;;;13.10;99.90;;;;;;2073496;28;20520;-70
2023/04/23 03:54:28;;;;;;;12.38;10.80;;;13.10;99.90;;;;;;2081381;28;20029;-69
2023/04/23 03:55:38;;;;;;;14.88;10.57;;;13.10;99.90;;;;;;2078450;28;20033;-70
2023/04/23 03:56:39;;;;;;;11.73;10.52;;;13.20;99.90;;;;;;2091768;28;20557;-69
2023/04/23 03:57:52;;;;;;;17.48;10.50;;;13.10;99.90;;;;;;2087573;28;20033;-69
2023/04/23 03:59:08;;;;;;;11.45;9.80;;;13.20;99.90;;;;;;2080591;28;20134;-70
2023/04/23 04:00:12;;;;;;;14.48;10.98;;;13.20;99.90;;;;;;2087204;28;20036;-69
2023/04/23 04:01:17;;;;;;;14.93;10.90;;;13.20;99.90;;;;;;2083335;28;20369;-69
2023/04/23 04:02:18;;;;;;;14.55;10.70;;;13.20;99.90;;;;;;2081580;28;20487;-70
2023/04/23 04:03:18;;;;;;;11.75;10.05;;;13.20;99.90;;;;;;2090393;28;20037;-70
2023/04/23 04:04:19;;;;;;;12.57;10.45;;;13.20;99.90;;;;;;2081736;28;20032;-69
2023/04/23 04:05:21;;;;;;;12.40;9.68;;;13.20;99.90;;;;;;2086803;28;20086;-66
2023/04/23 04:06:22;;;;;;;11.77;9.65;;;13.20;99.90;;;;;;2083432;28;20516;-70
2023/04/23 04:07:22;;;;;;;12.23;9.55;;;13.20;99.90;;;;;;2085199;28;20121;-70
2023/04/23 04:08:25;;;;;;;10.77;9.07;;;13.30;99.90;;;;;;2090252;28;20037;-70
2023/04/23 04:09:26;;;;;;;11.27;8.85;;;13.20;99.90;;;;;;2076087;28;20076;-70
2023/04/23 04:10:27;;;;;;;10.50;9.15;;;13.30;99.90;;;;;;2080964;28;20116;-70
2023/04/23 04:11:27;;;;;;;10.45;9.13;;;13.30;99.90;;;;;;2083034;28;20029;-70
2023/04/23 04:12:28;;;;;;;10.68;8.57;;;13.30;99.90;;;;;;2070789;28;20288;-70
2023/04/23 04:13:29;;;;;;;11.85;8.98;;;13.30;99.90;;;;;;2079502;28;20039;-70
2023/04/23 04:14:30;;;;;;;12.10;8.95;;;13.30;99.90;;;;;;2095355;28;20411;-70
2023/04/23 04:15:31;;;;;;;14.85;10.07;;;13.40;99.90;;;;;;2088216;28;20040;-69
2023/04/23 04:16:32;;;;;;;13.32;9.27;;;13.40;99.90;;;;;;2090350;28;20051;-69
2023/04/23 04:17:33;;;;;;;10.00;9.00;;;13.40;99.90;;;;;;2089034;28;20663;-71
2023/04/23 04:18:33;;;;;;;10.38;8.52;;;13.40;99.90;;;;;;2090349;28;20024;-67
2023/04/23 04:19:34;;;;;;;10.27;8.85;;;13.50;99.90;;;;;;2078556;28;20432;-69
2023/04/23 04:20:34;;;;;;;10.80;8.85;;;13.50;99.90;;;;;;2081327;28;20164;-69
2023/04/23 04:21:35;;;;;;;12.30;9.35;;;13.50;99.90;;;;;;2090228;28;20076;-69
2023/04/23 04:22:36;;;;;;;14.50;10.38;;;13.60;99.90;;;;;;2090322;28;20048;-69
2023/04/23 04:23:37;;;;;;;11.93;10.18;;;13.60;99.90;;;;;;2080694;28;20029;-69
2023/04/23 04:24:37;;;;;;;11.75;9.60;;;13.60;99.90;;;;;;2079180;28;20385;-70
2023/04/23 04:25:38;;;;;;;16.13;10.70;;;13.70;99.90;;;;;;2086039;28;20466;-69
2023/04/23 04:26:40;;;;;;;16.45;9.55;;;13.70;99.90;;;;;;2092575;28;20074;-69
2023/04/23 04:27:40;;;;;;;12.98;10.15;;;13.70;99.90;;;;;;2084281;28;20037;-70
2023/04/23 04:28:41;;;;;;;15.38;10.65;;;13.60;99.90;;;;;;2092140;28;20039;-70
2023/04/23 04:29:41;;;;;;;14.50;10.13;;;13.60;99.90;;;;;;2086233;28;20032;-69
2023/04/23 04:30:42;;;;;;;14.05;10.27;;;13.60;99.90;;;;;;2086160;28;20090;-69
2023/04/23 04:31:43;;;;;;;15.65;10.50;;;13.60;99.90;;;;;;2090158;28;20403;-69
2023/04/23 04:32:45;;;;;;;12.95;9.90;;;13.60;99.90;;;;;;2091736;28;20492;-71
2023/04/23 04:33:45;;;;;;;15.82;10.20;;;13.60;99.90;;;;;;2092038;28;20082;-68
2023/04/23 04:34:46;;;;;;;15.05;10.43;;;13.60;99.90;;;;;;2090010;28;20063;-69
2023/04/23 04:35:48;;;;;;;15.68;11.00;;;13.70;99.90;;;;;;2090037;28;20032;-69
2023/04/23 04:36:52;;;;;;;12.23;9.80;;;13.70;99.90;;;;;;2079143;28;20179;-68
2023/04/23 04:37:53;;;;;;;12.70;9.40;;;13.70;99.90;;;;;;2079400;28;20466;-69
2023/04/23 04:38:57;;;;;;;11.23;9.57;;;13.70;99.90;;;;;;2090175;28;20213;-69
2023/04/23 04:40:00;;;;;;;13.63;9.88;;;13.70;99.90;;;;;;2090292;28;20075;-69
2023/04/23 04:41:01;;;;;;;11.27;9.55;;;13.70;99.90;;;;;;2090249;28;20048;-69
2023/04/23 04:42:03;;;;;;;15.43;10.57;;;13.70;99.90;;;;;;2083502;28;20029;-69
2023/04/23 04:43:05;;;;;;;13.57;10.30;;;13.70;99.90;;;;;;2086655;28;20093;-69
2023/04/23 04:44:09;;;;;;;12.02;9.60;;;13.70;99.90;;;;;;2089994;28;20040;-70
2023/04/23 04:45:10;;;;;;;11.65;9.23;;;13.70;99.90;;;;;;2090168;28;20496;-70
2023/04/23 04:46:11;;;;;;;13.23;10.00;;;13.70;99.90;;;;;;2089796;28;20027;-70
2023/04/23 04:47:12;;;;;;;12.80;10.23;;;13.70;99.90;;;;;;2086328;28;20433;-70
2023/04/23 04:48:13;;;;;;;13.90;9.82;;;13.70;99.90;;;;;;2091913;28;20024;-70
2023/04/23 04:49:14;;;;;;;13.15;10.35;;;13.70;99.90;;;;;;2090037;28;20053;-70
2023/04/23 04:50:14;;;;;;;14.68;10.43;;;13.70;99.90;;;;;;2090142;28;20048;-70
2023/04/23 04:51:15;;;;;;;13.55;10.15;;;13.70;99.90;;;;;;2090974;28;20160;-70
2023/04/23 04:52:16;;;;;;;13.25;10.55;;;13.70;99.90;;;;;;2082410;28;20130;-70
2023/04/23 04:53:16;;;;;;;15.93;11.15;;;13.70;99.90;;;;;;2082395;28;20120;-70
2023/04/23 04:54:17;;;;;;;15.32;10.85;;;13.80;99.90;;;;;;2080239;28;20072;-70
2023/04/23 04:55:18;;;;;;;13.45;10.13;;;13.70;99.90;;;;;;2084327;28;20437;-70
2023/04/23 04:56:18;;;;;;;13.88;10.60;;;13.80;99.90;;;;;;2074229;28;20052;-70
2023/04/23 04:57:21;;;;;;;12.30;10.02;;;13.80;99.90;;;;;;2073056;28;20119;-70
2023/04/23 04:58:22;;;;;;;11.40;10.00;;;13.80;99.90;;;;;;2081460;28;20108;-70
2023/04/23 04:59:22;;;;;;;11.40;9.85;;;13.80;99.90;;;;;;2089934;28;20391;-70
2023/04/23 05:00:28;;;;;;;12.70;9.70;;;13.90;99.90;;;;;;2090246;28;20027;-70
2023/04/23 05:01:28;;;;;;;10.27;9.13;;;13.90;99.90;;;;;;2096650;28;20512;-70
2023/04/23 05:02:29;;;;;;;11.02;9.43;;;13.90;99.90;;;;;;2081167;28;20017;-70
2023/04/23 05:03:30;;;;;;;11.48;9.40;;;14.00;99.90;;;;;;2075007;28;20511;-70
2023/04/23 05:04:31;;;;;;;11.88;9.50;;;14.00;99.90;;;;;;2084828;28;20036;-70
2023/04/23 05:05:32;;;;;;;10.40;8.88;;;14.10;99.90;;;;;;2093386;28;20028;-70
2023/04/23 05:06:32;;;;;;;12.80;9.75;;;14.10;99.90;;;;;;2091748;28;20039;-70
2023/04/23 05:07:33;;;;;;;16.10;10.23;;;14.20;99.90;;;;;;2090072;28;20038;-70
2023/04/23 05:08:33;;;;;;;19.10;12.75;;;14.20;99.90;;;;;;2080056;28;20532;-70
2023/04/23 05:09:34;;;;;;;18.60;12.32;;;14.30;99.90;;;;;;2066506;28;20039;-70
2023/04/23 05:10:35;;;;;;;16.50;11.40;;;14.40;99.90;;;;;;2090226;28;20108;-70
2023/04/23 05:11:35;;;;;;;17.52;10.70;;;14.40;99.90;;;;;;2089995;28;20032;-69
2023/04/23 05:12:40;;;;;;;18.05;11.20;;;14.40;99.90;;;;;;2089041;28;20695;-70
2023/04/23 05:13:40;;;;;;;17.33;11.10;;;14.40;99.90;;;;;;2089910;28;20021;-69